sensor_id;sensor_type;location;lat;lon;timestamp;pressure;altitude;pressure_sealevel;temperature;humidity
72061;BME280;59925;52.136;5.420;2023-03-15T00:01:38;101336.13;;;1.07;99.64
72061;BME280;59925;52.136;5.420;2023-03-15T00:04:05;101336.91;;;1.07;99.68
72061;BME280;59925;52.136;5.420;2023-03-15T00:06:32;101337.50;;;1.03;99.94
72061;BME280;59925;52.136;5.420;2023-03-15T00:08:59;101338.72;;;1.00;99.78
72061;BME280;59925;52.136;5.420;2023-03-15T00:11:28;101333.19;;;0.95;100.00
72061;BME280;59925;52.136;5.420;2023-03-15T00:13:58;101339.66;;;0.93;100.00
72061;BME280;59925;52.136;5.420;2023-03-15T00:16:27;101340.06;;;0.89;100.00
72061;BME280;59925;52.136;5.420;2023-03-15T00:18:54;101343.47;;;0.83;100.00
72061;BME280;59925;52.136;5.420;2023-03-15T00:21:21;101342.63;;;0.83;100.00
72061;BME280;59925;52.136;5.420;2023-03-15T00:23:48;101336.94;;;0.79;100.00
72061;BME280;59925;52.136;5.420;2023-03-15T00:26:16;101336.69;;;0.74;100.00
72061;BME280;59925;52.136;5.420;2023-03-15T00:28:43;101336.09;;;0.72;100.00
72061;BME280;59925;52.136;5.420;2023-03-15T00:31:23;101352.94;;;0.71;100.00
72061;BME280;59925;52.136;5.420;2023-03-15T00:33:51;101352.09;;;0.70;100.00
72061;BME280;59925;52.136;5.420;2023-03-15T00:36:21;101351.66;;;0.67;100.00
72061;BME280;59925;52.136;5.420;2023-03-15T00:38:50;101353.66;;;0.65;100.00
72061;BME280;59925;52.136;5.420;2023-03-15T00:41:18;101353.25;;;0.61;100.00
72061;BME280;59925;52.136;5.420;2023-03-15T00:43:45;101348.97;;;0.60;100.00
72061;BME280;59925;52.136;5.420;2023-03-15T00:46:12;101346.06;;;0.55;100.00
72061;BME280;59925;52.136;5.420;2023-03-15T00:48:39;101353.19;;;0.54;100.00
72061;BME280;59925;52.136;5.420;2023-03-15T00:51:20;101357.25;;;0.57;100.00
72061;BME280;59925;52.136;5.420;2023-03-15T00:53:48;101360.09;;;0.55;100.00
72061;BME280;59925;52.136;5.420;2023-03-15T00:56:24;101370.81;;;0.54;100.00
72061;BME280;59925;52.136;5.420;2023-03-15T00:58:51;101368.38;;;0.52;100.00
72061;BME280;59925;52.136;5.420;2023-03-15T01:01:22;101373.84;;;0.51;100.00
72061;BME280;59925;52.136;5.420;2023-03-15T01:03:48;101376.50;;;0.51;100.00
72061;BME280;59925;52.136;5.420;2023-03-15T01:06:18;101374.59;;;0.44;100.00
72061;BME280;59925;52.136;5.420;2023-03-15T01:08:46;101385.53;;;0.41;100.00
72061;BME280;59925;52.136;5.420;2023-03-15T01:11:15;101394.06;;;0.43;100.00
72061;BME280;59925;52.136;5.420;2023-03-15T01:13:43;101395.06;;;0.42;100.00
72061;BME280;59925;52.136;5.420;2023-03-15T01:16:11;101399.72;;;0.40;100.00
72061;BME280;59925;52.136;5.420;2023-03-15T01:18:38;101402.75;;;0.37;100.00
72061;BME280;59925;52.136;5.420;2023-03-15T01:21:06;101395.41;;;0.33;100.00
72061;BME280;59925;52.136;5.420;2023-03-15T01:23:32;101396.19;;;0.33;100.00
72061;BME280;59925;52.136;5.420;2023-03-15T01:26:00;101403.31;;;0.33;100.00
72061;BME280;59925;52.136;5.420;2023-03-15T01:28:27;101403.69;;;0.29;100.00
72061;BME280;59925;52.136;5.420;2023-03-15T01:30:54;101407.13;;;0.30;100.00
72061;BME280;59925;52.136;5.420;2023-03-15T01:33:21;101402.84;;;0.29;100.00
72061;BME280;59925;52.136;5.420;2023-03-15T01:35:48;101405.31;;;0.30;100.00
72061;BME280;59925;52.136;5.420;2023-03-15T01:38:14;101411.75;;;0.28;100.00
72061;BME280;59925;52.136;5.420;2023-03-15T01:40:42;101416.66;;;0.31;100.00
72061;BME280;59925;52.136;5.420;2023-03-15T01:43:20;101419.13;;;0.33;100.00
72061;BME280;59925;52.136;5.420;2023-03-15T01:46:01;101418.50;;;0.30;100.00
72061;BME280;59925;52.136;5.420;2023-03-15T01:48:35;101418.88;;;0.27;100.00
72061;BME280;59925;52.136;5.420;2023-03-15T01:51:20;101418.22;;;0.25;100.00
72061;BME280;59925;52.136;5.420;2023-03-15T01:53:53;101427.78;;;0.26;100.00
72061;BME280;59925;52.136;5.420;2023-03-15T01:56:23;101426.16;;;0.25;100.00
72061;BME280;59925;52.136;5.420;2023-03-15T01:58:51;101430.63;;;0.25;100.00
72061;BME280;59925;52.136;5.420;2023-03-15T02:01:18;101434.41;;;0.22;100.00
72061;BME280;59925;52.136;5.420;2023-03-15T02:03:50;101433.41;;;0.23;100.00
72061;BME280;59925;52.136;5.420;2023-03-15T02:06:19;101434.06;;;0.25;100.00
72061;BME280;59925;52.136;5.420;2023-03-15T02:08:53;101441.78;;;0.27;100.00
72061;BME280;59925;52.136;5.420;2023-03-15T02:11:24;101436.50;;;0.27;100.00
72061;BME280;59925;52.136;5.420;2023-03-15T02:13:52;101444.03;;;0.30;100.00
72061;BME280;59925;52.136;5.420;2023-03-15T02:16:20;101440.59;;;0.29;100.00
72061;BME280;59925;52.136;5.420;2023-03-15T02:18:47;101442.25;;;0.30;100.00
72061;BME280;59925;52.136;5.420;2023-03-15T02:24:28;101442.81;;;0.26;100.00
72061;BME280;59925;52.136;5.420;2023-03-15T02:26:58;101451.72;;;0.25;100.00
72061;BME280;59925;52.136;5.420;2023-03-15T02:29:26;101459.63;;;0.25;100.00
72061;BME280;59925;52.136;5.420;2023-03-15T02:31:55;101457.78;;;0.25;100.00
72061;BME280;59925;52.136;5.420;2023-03-15T02:34:23;101452.88;;;0.22;100.00
72061;BME280;59925;52.136;5.420;2023-03-15T02:36:51;101453.28;;;0.19;100.00
72061;BME280;59925;52.136;5.420;2023-03-15T02:39:19;101462.78;;;0.20;100.00
72061;BME280;59925;52.136;5.420;2023-03-15T02:41:54;101471.91;;;0.18;100.00
72061;BME280;59925;52.136;5.420;2023-03-15T02:44:27;101474.91;;;0.14;100.00
72061;BME280;59925;52.136;5.420;2023-03-15T02:46:57;101478.38;;;0.15;100.00
72061;BME280;59925;52.136;5.420;2023-03-15T02:49:27;101479.72;;;0.11;100.00
72061;BME280;59925;52.136;5.420;2023-03-15T02:51:56;101482.56;;;0.09;100.00
72061;BME280;59925;52.136;5.420;2023-03-15T02:54:22;101488.84;;;0.08;100.00
72061;BME280;59925;52.136;5.420;2023-03-15T02:56:49;101498.75;;;0.06;100.00
72061;BME280;59925;52.136;5.420;2023-03-15T02:59:15;101501.72;;;0.03;100.00
72061;BME280;59925;52.136;5.420;2023-03-15T03:01:41;101499.66;;;-0.02;100.00
72061;BME280;59925;52.136;5.420;2023-03-15T03:04:11;101510.19;;;-0.02;100.00
72061;BME280;59925;52.136;5.420;2023-03-15T03:06:38;101517.28;;;-0.02;100.00
72061;BME280;59925;52.136;5.420;2023-03-15T03:09:04;101520.09;;;-0.04;100.00
72061;BME280;59925;52.136;5.420;2023-03-15T03:11:30;101518.66;;;-0.06;100.00
72061;BME280;59925;52.136;5.420;2023-03-15T03:13:57;101528.19;;;-0.05;100.00
72061;BME280;59925;52.136;5.420;2023-03-15T03:16:23;101531.63;;;-0.05;100.00
72061;BME280;59925;52.136;5.420;2023-03-15T03:18:50;101540.53;;;-0.06;100.00
72061;BME280;59925;52.136;5.420;2023-03-15T03:21:16;101537.28;;;-0.08;100.00
72061;BME280;59925;52.136;5.420;2023-03-15T03:23:43;101544.22;;;-0.07;100.00
72061;BME280;59925;52.136;5.420;2023-03-15T03:26:13;101548.00;;;-0.09;100.00
72061;BME280;59925;52.136;5.420;2023-03-15T03:28:46;101544.38;;;-0.08;100.00
72061;BME280;59925;52.136;5.420;2023-03-15T03:31:20;101558.19;;;-0.06;100.00
72061;BME280;59925;52.136;5.420;2023-03-15T03:33:47;101557.28;;;-0.13;100.00
72061;BME280;59925;52.136;5.420;2023-03-15T03:36:14;101557.66;;;-0.17;100.00
72061;BME280;59925;52.136;5.420;2023-03-15T03:38:42;101566.72;;;-0.19;100.00
72061;BME280;59925;52.136;5.420;2023-03-15T03:41:09;101568.53;;;-0.20;100.00
72061;BME280;59925;52.136;5.420;2023-03-15T03:43:36;101575.25;;;-0.17;100.00
72061;BME280;59925;52.136;5.420;2023-03-15T03:46:03;101581.38;;;-0.17;100.00
72061;BME280;59925;52.136;5.420;2023-03-15T03:48:30;101585.00;;;-0.18;100.00
72061;BME280;59925;52.136;5.420;2023-03-15T03:50:57;101580.91;;;-0.20;100.00
72061;BME280;59925;52.136;5.420;2023-03-15T03:53:23;101584.69;;;-0.23;100.00
72061;BME280;59925;52.136;5.420;2023-03-15T03:55:50;101590.31;;;-0.26;100.00
72061;BME280;59925;52.136;5.420;2023-03-15T03:58:17;101590.69;;;-0.29;100.00
72061;BME280;59925;52.136;5.420;2023-03-15T04:00:43;101595.97;;;-0.29;100.00
72061;BME280;59925;52.136;5.420;2023-03-15T04:03:10;101599.59;;;-0.30;100.00
72061;BME280;59925;52.136;5.420;2023-03-15T04:05:36;101601.41;;;-0.31;100.00
72061;BME280;59925;52.136;5.420;2023-03-15T04:08:04;101609.50;;;-0.32;100.00
72061;BME280;59925;52.136;5.420;2023-03-15T04:10:30;101608.03;;;-0.35;100.00
72061;BME280;59925;52.136;5.420;2023-03-15T04:13:00;101614.75;;;-0.32;100.00
72061;BME280;59925;52.136;5.420;2023-03-15T04:15:27;101608.84;;;-0.34;100.00
72061;BME280;59925;52.136;5.420;2023-03-15T04:17:53;101621.03;;;-0.33;100.00
72061;BME280;59925;52.136;5.420;2023-03-15T04:20:24;101622.03;;;-0.34;100.00
72061;BME280;59925;52.136;5.420;2023-03-15T04:22:52;101628.13;;;-0.34;100.00
72061;BME280;59925;52.136;5.420;2023-03-15T04:25:19;101628.28;;;-0.35;100.00
72061;BME280;59925;52.136;5.420;2023-03-15T04:27:46;101627.63;;;-0.37;100.00
72061;BME280;59925;52.136;5.420;2023-03-15T04:30:30;101630.28;;;-0.37;100.00
72061;BME280;59925;52.136;5.420;2023-03-15T04:32:56;101638.38;;;-0.39;100.00
72061;BME280;59925;52.136;5.420;2023-03-15T04:35:31;101642.81;;;-0.39;100.00
72061;BME280;59925;52.136;5.420;2023-03-15T04:37:57;101647.25;;;-0.40;100.00
72061;BME280;59925;52.136;5.420;2023-03-15T04:40:24;101651.72;;;-0.40;100.00
72061;BME280;59925;52.136;5.420;2023-03-15T04:42:52;101655.69;;;-0.44;100.00
72061;BME280;59925;52.136;5.420;2023-03-15T04:45:22;101651.63;;;-0.47;100.00
72061;BME280;59925;52.136;5.420;2023-03-15T04:47:50;101655.25;;;-0.48;100.00
72061;BME280;59925;52.136;5.420;2023-03-15T04:50:17;101658.03;;;-0.50;100.00
72061;BME280;59925;52.136;5.420;2023-03-15T04:52:44;101660.66;;;-0.50;100.00
72061;BME280;59925;52.136;5.420;2023-03-15T04:55:11;101661.66;;;-0.51;100.00
72061;BME280;59925;52.136;5.420;2023-03-15T04:57:38;101668.91;;;-0.53;100.00
72061;BME280;59925;52.136;5.420;2023-03-15T05:00:06;101668.28;;;-0.55;100.00
72061;BME280;59925;52.136;5.420;2023-03-15T05:02:33;101675.53;;;-0.57;100.00
72061;BME280;59925;52.136;5.420;2023-03-15T05:05:01;101680.81;;;-0.57;100.00
72061;BME280;59925;52.136;5.420;2023-03-15T05:07:27;101688.59;;;-0.64;100.00
72061;BME280;59925;52.136;5.420;2023-03-15T05:09:53;101682.00;;;-0.68;100.00
72061;BME280;59925;52.136;5.420;2023-03-15T05:12:20;101693.38;;;-0.67;100.00
72061;BME280;59925;52.136;5.420;2023-03-15T05:14:46;101695.03;;;-0.66;100.00
72061;BME280;59925;52.136;5.420;2023-03-15T05:17:13;101700.44;;;-0.68;100.00
72061;BME280;59925;52.136;5.420;2023-03-15T05:19:40;101703.09;;;-0.68;100.00
72061;BME280;59925;52.136;5.420;2023-03-15T05:22:07;101708.34;;;-0.68;100.00
72061;BME280;59925;52.136;5.420;2023-03-15T05:24:34;101710.19;;;-0.68;100.00
72061;BME280;59925;52.136;5.420;2023-03-15T05:27:00;101719.06;;;-0.69;100.00
72061;BME280;59925;52.136;5.420;2023-03-15T05:29:27;101731.25;;;-0.68;100.00
72061;BME280;59925;52.136;5.420;2023-03-15T05:31:53;101741.13;;;-0.70;100.00
72061;BME280;59925;52.136;5.420;2023-03-15T05:34:20;101732.56;;;-0.72;100.00
72061;BME280;59925;52.136;5.420;2023-03-15T05:36:50;101736.19;;;-0.73;100.00
72061;BME280;59925;52.136;5.420;2023-03-15T05:39:17;101736.19;;;-0.73;100.00
72061;BME280;59925;52.136;5.420;2023-03-15T05:41:44;101733.03;;;-0.69;100.00
72061;BME280;59925;52.136;5.420;2023-03-15T05:44:10;101735.53;;;-0.67;100.00
72061;BME280;59925;52.136;5.420;2023-03-15T05:46:36;101740.44;;;-0.64;100.00
72061;BME280;59925;52.136;5.420;2023-03-15T05:49:03;101742.72;;;-0.61;100.00
72061;BME280;59925;52.136;5.420;2023-03-15T05:51:29;101745.16;;;-0.59;100.00
72061;BME280;59925;52.136;5.420;2023-03-15T05:53:56;101742.19;;;-0.56;100.00
72061;BME280;59925;52.136;5.420;2023-03-15T05:56:23;101747.31;;;-0.55;100.00
72061;BME280;59925;52.136;5.420;2023-03-15T05:58:49;101757.19;;;-0.57;100.00
72061;BME280;59925;52.136;5.420;2023-03-15T06:01:16;101760.47;;;-0.55;100.00
72061;BME280;59925;52.136;5.420;2023-03-15T06:03:42;101773.47;;;-0.53;100.00
72061;BME280;59925;52.136;5.420;2023-03-15T06:06:09;101785.50;;;-0.59;100.00
72061;BME280;59925;52.136;5.420;2023-03-15T06:08:35;101792.59;;;-0.59;100.00
72061;BME280;59925;52.136;5.420;2023-03-15T06:11:02;101797.84;;;-0.59;100.00
72061;BME280;59925;52.136;5.420;2023-03-15T06:13:28;101798.88;;;-0.60;100.00
72061;BME280;59925;52.136;5.420;2023-03-15T06:15:55;101804.63;;;-0.65;100.00
72061;BME280;59925;52.136;5.420;2023-03-15T06:18:22;101811.19;;;-0.61;100.00
72061;BME280;59925;52.136;5.420;2023-03-15T06:20:48;101817.78;;;-0.57;100.00
72061;BME280;59925;52.136;5.420;2023-03-15T06:23:15;101808.72;;;-0.54;100.00
72061;BME280;59925;52.136;5.420;2023-03-15T06:25:41;101807.53;;;-0.52;100.00
72061;BME280;59925;52.136;5.420;2023-03-15T06:28:07;101819.38;;;-0.48;100.00
72061;BME280;59925;52.136;5.420;2023-03-15T06:30:34;101812.78;;;-0.43;100.00
72061;BME280;59925;52.136;5.420;2023-03-15T06:33:01;101822.47;;;-0.36;100.00
72061;BME280;59925;52.136;5.420;2023-03-15T06:35:28;101822.75;;;-0.31;100.00
72061;BME280;59925;52.136;5.420;2023-03-15T06:37:54;101825.53;;;-0.24;100.00
72061;BME280;59925;52.136;5.420;2023-03-15T06:40:21;101836.38;;;-0.19;100.00
72061;BME280;59925;52.136;5.420;2023-03-15T06:42:47;101838.31;;;-0.12;100.00
72061;BME280;59925;52.136;5.420;2023-03-15T06:45:14;101840.25;;;-0.06;100.00
72061;BME280;59925;52.136;5.420;2023-03-15T06:47:41;101849.28;;;-0.01;100.00
72061;BME280;59925;52.136;5.420;2023-03-15T06:50:08;101862.94;;;0.03;100.00
72061;BME280;59925;52.136;5.420;2023-03-15T06:52:35;101856.66;;;0.04;100.00
72061;BME280;59925;52.136;5.420;2023-03-15T06:55:02;101858.13;;;0.07;100.00
72061;BME280;59925;52.136;5.420;2023-03-15T06:57:28;101862.41;;;0.08;100.00
72061;BME280;59925;52.136;5.420;2023-03-15T06:59:55;101862.53;;;0.14;100.00
72061;BME280;59925;52.136;5.420;2023-03-15T07:02:22;101865.31;;;0.21;100.00
72061;BME280;59925;52.136;5.420;2023-03-15T07:04:49;101875.34;;;0.26;100.00
72061;BME280;59925;52.136;5.420;2023-03-15T07:07:16;101875.63;;;0.31;100.00
72061;BME280;59925;52.136;5.420;2023-03-15T07:09:42;101890.41;;;0.40;100.00
72061;BME280;59925;52.136;5.420;2023-03-15T07:12:09;101895.00;;;0.47;100.00
72061;BME280;59925;52.136;5.420;2023-03-15T07:14:36;101892.81;;;0.50;100.00
72061;BME280;59925;52.136;5.420;2023-03-15T07:17:03;101896.22;;;0.59;100.00
72061;BME280;59925;52.136;5.420;2023-03-15T07:19:29;101895.78;;;0.70;100.00
72061;BME280;59925;52.136;5.420;2023-03-15T07:21:56;101895.56;;;0.80;100.00
72061;BME280;59925;52.136;5.420;2023-03-15T07:24:22;101894.66;;;0.88;100.00
72061;BME280;59925;52.136;5.420;2023-03-15T07:26:49;101890.94;;;0.97;100.00
72061;BME280;59925;52.136;5.420;2023-03-15T07:29:24;101901.72;;;1.11;100.00
72061;BME280;59925;52.136;5.420;2023-03-15T07:31:51;101909.03;;;1.24;100.00
72061;BME280;59925;52.136;5.420;2023-03-15T07:34:17;101905.13;;;1.34;100.00
72061;BME280;59925;52.136;5.420;2023-03-15T07:36:44;101915.97;;;1.40;100.00
72061;BME280;59925;52.136;5.420;2023-03-15T07:39:10;101919.44;;;1.55;100.00
72061;BME280;59925;52.136;5.420;2023-03-15T07:41:37;101920.25;;;1.71;100.00
72061;BME280;59925;52.136;5.420;2023-03-15T07:44:04;101920.97;;;1.79;100.00
72061;BME280;59925;52.136;5.420;2023-03-15T07:46:30;101935.19;;;1.93;100.00
72061;BME280;59925;52.136;5.420;2023-03-15T07:48:57;101929.88;;;2.08;100.00
72061;BME280;59925;52.136;5.420;2023-03-15T07:51:23;101929.56;;;2.18;100.00
72061;BME280;59925;52.136;5.420;2023-03-15T07:53:50;101931.94;;;2.28;100.00
72061;BME280;59925;52.136;5.420;2023-03-15T07:56:16;101937.75;;;2.60;100.00
72061;BME280;59925;52.136;5.420;2023-03-15T07:58:44;101939.84;;;3.15;100.00
72061;BME280;59925;52.136;5.420;2023-03-15T08:01:11;101943.06;;;3.38;100.00
72061;BME280;59925;52.136;5.420;2023-03-15T08:03:37;101949.00;;;4.18;100.00
72061;BME280;59925;52.136;5.420;2023-03-15T08:06:04;101953.06;;;4.13;100.00
72061;BME280;59925;52.136;5.420;2023-03-15T08:08:31;101955.34;;;3.75;100.00
72061;BME280;59925;52.136;5.420;2023-03-15T08:10:57;101958.69;;;3.55;100.00
72061;BME280;59925;52.136;5.420;2023-03-15T08:13:24;101970.47;;;3.46;100.00
72061;BME280;59925;52.136;5.420;2023-03-15T08:15:51;101974.13;;;3.45;100.00
72061;BME280;59925;52.136;5.420;2023-03-15T08:18:17;101967.22;;;3.50;100.00
72061;BME280;59925;52.136;5.420;2023-03-15T08:20:44;101978.31;;;3.61;100.00
72061;BME280;59925;52.136;5.420;2023-03-15T08:23:10;101976.28;;;3.63;100.00
72061;BME280;59925;52.136;5.420;2023-03-15T08:25:43;101975.31;;;3.71;100.00
72061;BME280;59925;52.136;5.420;2023-03-15T08:28:10;101973.91;;;3.75;100.00
72061;BME280;59925;52.136;5.420;2023-03-15T08:30:37;101985.56;;;3.80;99.49
72061;BME280;59925;52.136;5.420;2023-03-15T08:33:04;101988.25;;;3.87;98.72
72061;BME280;59925;52.136;5.420;2023-03-15T08:35:31;101983.06;;;4.07;98.31
72061;BME280;59925;52.136;5.420;2023-03-15T08:38:00;101992.09;;;4.20;97.71
72061;BME280;59925;52.136;5.420;2023-03-15T08:40:29;101986.59;;;4.28;97.24
72061;BME280;59925;52.136;5.420;2023-03-15T08:42:56;101992.38;;;4.52;96.54
72061;BME280;59925;52.136;5.420;2023-03-15T08:45:24;102000.41;;;4.79;95.86
72061;BME280;59925;52.136;5.420;2023-03-15T08:47:55;102005.16;;;5.10;95.46
72061;BME280;59925;52.136;5.420;2023-03-15T08:50:22;102001.69;;;5.50;94.68
72061;BME280;59925;52.136;5.420;2023-03-15T08:52:49;102003.84;;;5.93;93.95
72061;BME280;59925;52.136;5.420;2023-03-15T08:55:16;102013.53;;;6.40;92.61
72061;BME280;59925;52.136;5.420;2023-03-15T08:57:42;102011.63;;;6.86;91.55
72061;BME280;59925;52.136;5.420;2023-03-15T09:00:10;102004.97;;;6.70;89.27
72061;BME280;59925;52.136;5.420;2023-03-15T09:02:43;102011.91;;;6.32;88.49
72061;BME280;59925;52.136;5.420;2023-03-15T09:05:10;102014.84;;;6.17;88.48
72061;BME280;59925;52.136;5.420;2023-03-15T09:07:41;102012.81;;;6.19;88.31
72061;BME280;59925;52.136;5.420;2023-03-15T09:10:09;102017.50;;;6.24;87.91
72061;BME280;59925;52.136;5.420;2023-03-15T09:12:35;102018.91;;;6.26;87.32
72061;BME280;59925;52.136;5.420;2023-03-15T09:15:02;102018.00;;;6.46;86.40
72061;BME280;59925;52.136;5.420;2023-03-15T09:17:28;102020.81;;;6.58;85.66
72061;BME280;59925;52.136;5.420;2023-03-15T09:19:55;102027.00;;;6.52;84.29
72061;BME280;59925;52.136;5.420;2023-03-15T09:22:21;102015.66;;;6.63;84.21
72061;BME280;59925;52.136;5.420;2023-03-15T09:25:04;102011.06;;;6.77;83.33
72061;BME280;59925;52.136;5.420;2023-03-15T09:27:31;102011.53;;;6.99;82.75
72061;BME280;59925;52.136;5.420;2023-03-15T09:29:57;102009.25;;;7.03;81.30
72061;BME280;59925;52.136;5.420;2023-03-15T09:32:24;102007.56;;;7.09;79.65
72061;BME280;59925;52.136;5.420;2023-03-15T09:34:51;102015.81;;;7.32;79.55
72061;BME280;59925;52.136;5.420;2023-03-15T09:37:18;102010.91;;;7.29;77.99
72061;BME280;59925;52.136;5.420;2023-03-15T09:39:47;102008.91;;;7.43;77.32
72061;BME280;59925;52.136;5.420;2023-03-15T09:42:26;102017.22;;;7.60;76.37
72061;BME280;59925;52.136;5.420;2023-03-15T09:45:09;102016.69;;;7.70;75.60
72061;BME280;59925;52.136;5.420;2023-03-15T09:50:26;102023.50;;;7.85;73.34
72061;BME280;59925;52.136;5.420;2023-03-15T09:55:25;102022.78;;;7.96;73.41
72061;BME280;59925;52.136;5.420;2023-03-15T09:57:55;102025.91;;;7.93;70.23
72061;BME280;59925;52.136;5.420;2023-03-15T10:00:35;102021.00;;;8.08;69.95
72061;BME280;59925;52.136;5.420;2023-03-15T10:03:03;102023.59;;;8.15;69.67
72061;BME280;59925;52.136;5.420;2023-03-15T10:05:48;102020.75;;;8.28;68.61
72061;BME280;59925;52.136;5.420;2023-03-15T10:08:16;102031.41;;;8.47;68.81
72061;BME280;59925;52.136;5.420;2023-03-15T10:10:59;102020.69;;;8.54;67.64
72061;BME280;59925;52.136;5.420;2023-03-15T10:13:41;102024.56;;;8.70;65.84
72061;BME280;59925;52.136;5.420;2023-03-15T10:16:27;102012.94;;;8.46;62.97
72061;BME280;59925;52.136;5.420;2023-03-15T10:24:32;102009.84;;;8.79;62.37
72061;BME280;59925;52.136;5.420;2023-03-15T10:27:08;102010.66;;;8.80;62.47
72061;BME280;59925;52.136;5.420;2023-03-15T10:29:39;102005.13;;;9.17;62.99
72061;BME280;59925;52.136;5.420;2023-03-15T10:32:14;102019.13;;;9.31;61.86
72061;BME280;59925;52.136;5.420;2023-03-15T10:34:48;102017.97;;;9.39;60.73
72061;BME280;59925;52.136;5.420;2023-03-15T10:37:17;102019.00;;;9.26;59.45
72061;BME280;59925;52.136;5.420;2023-03-15T10:39:47;102018.59;;;8.98;59.36
72061;BME280;59925;52.136;5.420;2023-03-15T10:42:28;102026.44;;;9.24;59.28
72061;BME280;59925;52.136;5.420;2023-03-15T10:44:56;102033.91;;;9.45;60.74
72061;BME280;59925;52.136;5.420;2023-03-15T10:47:24;102029.00;;;9.78;60.06
72061;BME280;59925;52.136;5.420;2023-03-15T10:49:58;102038.78;;;9.84;57.98
72061;BME280;59925;52.136;5.420;2023-03-15T10:52:37;102042.16;;;9.79;55.28
72061;BME280;59925;52.136;5.420;2023-03-15T10:55:14;102040.88;;;9.94;56.31
72061;BME280;59925;52.136;5.420;2023-03-15T10:57:56;102041.38;;;10.20;54.77
72061;BME280;59925;52.136;5.420;2023-03-15T11:00:30;102057.19;;;10.33;56.06
72061;BME280;59925;52.136;5.420;2023-03-15T11:03:05;102059.63;;;10.35;55.09
72061;BME280;59925;52.136;5.420;2023-03-15T11:05:48;102064.09;;;10.41;53.47
72061;BME280;59925;52.136;5.420;2023-03-15T11:08:18;102059.09;;;10.21;53.04
72061;BME280;59925;52.136;5.420;2023-03-15T11:10:47;102063.13;;;10.47;54.35
72061;BME280;59925;52.136;5.420;2023-03-15T11:13:24;102071.88;;;10.42;51.04
72061;BME280;59925;52.136;5.420;2023-03-15T11:18:35;102076.53;;;10.35;50.63
72061;BME280;59925;52.136;5.420;2023-03-15T11:21:05;102084.59;;;10.23;51.38
72061;BME280;59925;52.136;5.420;2023-03-15T11:23:36;102083.94;;;10.69;52.18
72061;BME280;59925;52.136;5.420;2023-03-15T11:26:04;102078.94;;;10.89;50.78
72061;BME280;59925;52.136;5.420;2023-03-15T11:28:34;102075.09;;;10.85;51.11
72061;BME280;59925;52.136;5.420;2023-03-15T11:31:03;102088.53;;;10.56;48.14
72061;BME280;59925;52.136;5.420;2023-03-15T11:33:31;102074.91;;;10.75;51.88
72061;BME280;59925;52.136;5.420;2023-03-15T11:36:06;102075.63;;;10.99;49.95
72061;BME280;59925;52.136;5.420;2023-03-15T11:38:41;102078.75;;;10.50;50.67
72061;BME280;59925;52.136;5.420;2023-03-15T11:41:19;102076.47;;;9.94;49.75
72061;BME280;59925;52.136;5.420;2023-03-15T11:43:54;102084.09;;;9.86;50.26
72061;BME280;59925;52.136;5.420;2023-03-15T11:46:38;102076.19;;;10.43;51.10
72061;BME280;59925;52.136;5.420;2023-03-15T11:51:44;102068.31;;;11.46;50.59
72061;BME280;59925;52.136;5.420;2023-03-15T11:54:16;102058.63;;;11.45;49.22
72061;BME280;59925;52.136;5.420;2023-03-15T11:59:23;102052.75;;;11.65;48.47
72061;BME280;59925;52.136;5.420;2023-03-15T12:02:06;102060.47;;;12.18;48.46
72061;BME280;59925;52.136;5.420;2023-03-15T12:04:48;102052.91;;;12.37;47.69
72061;BME280;59925;52.136;5.420;2023-03-15T12:17:48;102062.28;;;12.34;44.07
72061;BME280;59925;52.136;5.420;2023-03-15T12:22:49;102065.16;;;12.27;41.97
72061;BME280;59925;52.136;5.420;2023-03-15T12:25:36;102063.63;;;12.59;43.38
72061;BME280;59925;52.136;5.420;2023-03-15T12:28:30;102067.84;;;13.05;42.36
72061;BME280;59925;52.136;5.420;2023-03-15T12:31:02;102064.00;;;12.95;41.48
72061;BME280;59925;52.136;5.420;2023-03-15T12:33:31;102067.41;;;13.18;41.66
72061;BME280;59925;52.136;5.420;2023-03-15T12:36:07;102063.59;;;13.14;41.03
72061;BME280;59925;52.136;5.420;2023-03-15T12:38:37;102064.25;;;12.66;40.46
72061;BME280;59925;52.136;5.420;2023-03-15T12:41:08;102061.47;;;12.56;41.14
72061;BME280;59925;52.136;5.420;2023-03-15T12:44:24;102060.03;;;13.03;41.02
72061;BME280;59925;52.136;5.420;2023-03-15T12:46:54;102067.00;;;13.04;41.99
72061;BME280;59925;52.136;5.420;2023-03-15T12:49:35;102054.91;;;12.74;40.22
72061;BME280;59925;52.136;5.420;2023-03-15T12:52:03;102064.50;;;12.92;40.85
72061;BME280;59925;52.136;5.420;2023-03-15T12:55:02;102065.00;;;13.16;40.97
72061;BME280;59925;52.136;5.420;2023-03-15T12:57:38;102068.03;;;13.30;39.89
72061;BME280;59925;52.136;5.420;2023-03-15T13:00:25;102063.59;;;13.41;40.87
72061;BME280;59925;52.136;5.420;2023-03-15T13:05:31;102063.94;;;13.55;39.35
72061;BME280;59925;52.136;5.420;2023-03-15T13:08:20;102059.66;;;13.59;39.50
72061;BME280;59925;52.136;5.420;2023-03-15T13:16:44;102056.41;;;13.57;39.50
72061;BME280;59925;52.136;5.420;2023-03-15T13:19:18;102063.22;;;13.70;39.49
72061;BME280;59925;52.136;5.420;2023-03-15T13:24:23;102052.78;;;13.84;38.56
72061;BME280;59925;52.136;5.420;2023-03-15T13:27:02;102051.34;;;13.66;38.09
72061;BME280;59925;52.136;5.420;2023-03-15T13:29:31;102048.63;;;13.61;37.76
72061;BME280;59925;52.136;5.420;2023-03-15T13:32:01;102053.22;;;13.60;37.90
72061;BME280;59925;52.136;5.420;2023-03-15T13:34:33;102063.66;;;13.19;39.80
72061;BME280;59925;52.136;5.420;2023-03-15T13:37:00;102060.75;;;13.26;39.40
72061;BME280;59925;52.136;5.420;2023-03-15T13:39:33;102062.94;;;13.67;39.51
72061;BME280;59925;52.136;5.420;2023-03-15T13:42:02;102062.63;;;14.11;39.55
72061;BME280;59925;52.136;5.420;2023-03-15T13:44:30;102063.75;;;14.25;38.97
72061;BME280;59925;52.136;5.420;2023-03-15T13:46:57;102064.50;;;14.05;37.99